Time;durP1;ratioP1;P1;durP2;ratioP2;P2;SDS_P1;SDS_P2;PMS_P1;PMS_P2;Temp;Humidity;BMP_temperature;BMP_pressure;BME280_temperature;BME280_humidity;BME280_pressure;Samples;Min_cycle;Max_cycle;Signal;HPM_P1;HPM_P2
2023/04/08 00:01:13;;;;;;;;;;;;;;;-144.99;98.22;52321.72;4986472;28;19929;-78
2023/04/08 00:03:40;;;;;;;;;;;;;;;-144.99;98.65;52285.03;4988844;28;19989;-79
2023/04/08 00:06:07;;;;;;;;;;;;;;;-144.99;99.26;52340.06;4988396;28;19938;-77
2023/04/08 00:08:34;;;;;;;;;;;;;;;-144.99;99.47;52313.56;4986002;28;19965;-78
2023/04/08 00:11:00;;;;;;;;;;;;;;;-144.99;99.30;52289.13;4984137;28;19961;-79
2023/04/08 00:13:27;;;;;;;;;;;;;;;-144.99;99.25;52315.59;4983408;28;19933;-78
2023/04/08 00:15:53;;;;;;;;;;;;;;;-144.99;99.13;52313.56;4989657;28;19953;-76
2023/04/08 00:18:20;;;;;;;;;;;;;;;-144.99;99.16;52325.81;4990111;28;20490;-77
2023/04/08 00:20:46;;;;;;;;;;;;;;;-144.99;99.27;52305.41;4980979;28;19930;-79
2023/04/08 00:23:14;;;;;;;;;;;;;;;-144.99;99.17;52329.88;4986368;28;20012;-78
2023/04/08 00:25:41;;;;;;;;;;;;;;;-144.99;99.01;52301.34;4988850;28;19930;-78
2023/04/08 00:28:07;;;;;;;;;;;;;;;-144.99;99.10;52280.97;4989016;28;20364;-79
2023/04/08 00:30:34;;;;;;;;;;;;;;;-144.99;99.25;52323.75;4984788;28;20455;-78
2023/04/08 00:33:01;;;;;;;;;;;;;;;-144.99;99.11;52291.16;4989623;28;19970;-80
2023/04/08 00:35:28;;;;;;;;;;;;;;;-144.99;99.15;52264.66;4989291;28;19930;-81
2023/04/08 00:37:54;;;;;;;;;;;;;;;-144.99;98.89;52244.28;4993060;28;20040;-81
2023/04/08 00:40:22;;;;;;;;;;;;;;;-144.99;98.98;52280.97;4999312;28;19965;-81
2023/04/08 00:42:49;;;;;;;;;;;;;;;-144.99;99.26;52309.50;5000355;28;20240;-81
2023/04/08 00:45:15;;;;;;;;;;;;;;;-144.99;99.17;52285.03;4994466;28;20192;-81
2023/04/08 00:47:42;;;;;;;;;;;;;;;-144.99;99.33;52285.03;5001420;28;19929;-82
2023/04/08 00:50:10;;;;;;;;;;;;;;;-144.99;99.33;52301.34;5009083;28;19913;-81
2023/04/08 00:52:36;;;;;;;;;;;;;;;-144.99;99.81;52301.34;4996447;28;19925;-82
2023/04/08 00:55:03;;;;;;;;;;;;;;;-144.99;100.00;52313.56;4992522;28;19937;-79
2023/04/08 00:57:31;;;;;;;;;;;;;;;-144.99;100.00;52295.22;4996701;28;19930;-81
2023/04/08 00:59:58;;;;;;;;;;;;;;;-144.99;100.00;52329.88;4991142;28;19973;-78
2023/04/08 01:02:29;;;;;;;;;;;;;;;-144.99;100.00;52319.69;4986864;28;19930;-76
2023/04/08 01:05:00;;;;;;;;;;;;;;;-144.99;100.00;52289.13;4984415;28;19925;-79
2023/04/08 01:07:27;;;;;;;;;;;;;;;-144.99;100.00;52327.84;4981724;28;20270;-77
2023/04/08 01:09:55;;;;;;;;;;;;;;;-144.99;100.00;52325.81;4983259;28;19930;-77
2023/04/08 01:12:26;;;;;;;;;;;;;;;-144.99;100.00;52301.34;4982859;28;20471;-79
2023/04/08 01:14:56;;;;;;;;;;;;;;;-144.99;100.00;52309.50;4981128;28;19977;-77
2023/04/08 01:17:22;;;;;;;;;;;;;;;-144.99;100.00;52317.66;4982111;28;20487;-77
2023/04/08 01:19:50;;;;;;;;;;;;;;;-144.99;100.00;52309.50;4988429;28;19961;-77
2023/04/08 01:22:20;;;;;;;;;;;;;;;-144.99;100.00;52305.41;4983028;28;19949;-79
2023/04/08 01:24:49;;;;;;;;;;;;;;;-144.99;100.00;52268.72;4982465;28;19949;-78
2023/04/08 01:27:19;;;;;;;;;;;;;;;-144.99;100.00;52301.34;4979399;28;19977;-79
2023/04/08 01:29:47;;;;;;;;;;;;;;;-144.99;100.00;52309.50;4986163;28;19936;-82
2023/04/08 01:32:15;;;;;;;;;;;;;;;-144.99;99.66;52268.72;5007338;28;19929;-77
2023/04/08 01:34:42;;;;;;;;;;;;;;;-144.99;99.96;52293.19;5006227;28;19973;-81
2023/04/08 01:37:08;;;;;;;;;;;;;;;-144.99;100.00;52305.41;5010061;28;19925;-81
2023/04/08 01:39:35;;;;;;;;;;;;;;;-144.99;100.00;52297.25;5006359;28;19957;-76
2023/04/08 01:42:02;;;;;;;;;;;;;;;-144.99;100.00;52260.56;5002670;28;20470;-80
2023/04/08 01:44:32;;;;;;;;;;;;;;;-144.99;100.00;52325.81;5006083;28;20060;-80
2023/04/08 01:46:59;;;;;;;;;;;;;;;-144.99;100.00;52293.19;5002723;28;19976;-76
2023/04/08 01:49:26;;;;;;;;;;;;;;;-144.99;100.00;52297.25;5000381;28;19961;-78
2023/04/08 01:51:53;;;;;;;;;;;;;;;-144.99;100.00;52287.06;4999496;28;19980;-75
2023/04/08 01:54:20;;;;;;;;;;;;;;;-144.99;100.00;52293.19;4988507;28;19934;-79
2023/04/08 01:56:46;;;;;;;;;;;;;;;-144.99;98.18;52289.13;5008551;28;19926;-81
2023/04/08 01:59:14;;;;;;;;;;;;;;;-144.99;97.20;52305.41;4992565;28;19926;-76
2023/04/08 02:01:42;;;;;;;;;;;;;;;-144.99;96.40;52305.41;4646270;28;10000372;-78
2023/04/08 02:04:09;;;;;;;;;;;;;;;-144.99;96.87;52317.66;4983844;28;19937;-79
2023/04/08 02:06:36;;;;;;;;;;;;;;;-144.99;99.31;52311.53;4982466;28;19933;-77
2023/04/08 02:09:04;;;;;;;;;;;;;;;-144.99;97.12;52297.25;4987833;28;19954;-78
2023/04/08 02:11:31;;;;;;;;;;;;;;;-144.99;97.17;52285.03;4988726;28;19940;-79
2023/04/08 02:13:57;;;;;;;;;;;;;;;-144.99;97.36;52297.25;4981312;28;19996;-75
2023/04/08 02:16:27;;;;;;;;;;;;;;;-144.99;96.50;52289.13;4991628;28;19933;-78
2023/04/08 02:18:58;;;;;;;;;;;;;;;-144.99;95.95;52268.72;4991789;28;19929;-79
2023/04/08 02:21:28;;;;;;;;;;;;;;;-144.99;95.81;52256.50;4988955;28;19980;-80
2023/04/08 02:23:55;;;;;;;;;;;;;;;-144.99;96.08;52256.50;4992036;28;19925;-80
2023/04/08 02:26:22;;;;;;;;;;;;;;;-144.99;96.18;52289.13;4986152;28;19926;-78
2023/04/08 02:28:49;;;;;;;;;;;;;;;-144.99;96.12;52283.00;4983548;28;19926;-78
2023/04/08 02:31:17;;;;;;;;;;;;;;;-144.99;95.63;52248.34;4990208;28;19930;-80
2023/04/08 02:33:44;;;;;;;;;;;;;;;-144.99;95.32;52280.97;4992570;28;20356;-79
2023/04/08 02:36:14;;;;;;;;;;;;;;;-144.99;95.37;52309.50;4985924;28;19930;-78
2023/04/08 02:38:41;;;;;;;;;;;;;;;-144.99;95.79;52285.03;4990791;28;19996;-80
2023/04/08 02:41:07;;;;;;;;;;;;;;;-144.99;95.73;52268.72;4990998;28;19930;-79
2023/04/08 02:43:34;;;;;;;;;;;;;;;-144.99;95.81;52264.66;4981986;28;19961;-80
2023/04/08 02:46:02;;;;;;;;;;;;;;;-144.99;96.12;52260.56;4981881;28;20470;-79
2023/04/08 02:48:28;;;;;;;;;;;;;;;-144.99;96.24;52283.00;4984163;28;19937;-79
2023/04/08 02:50:56;;;;;;;;;;;;;;;-144.99;95.78;52297.25;4984814;28;20807;-80
2023/04/08 02:53:24;;;;;;;;;;;;;;;-144.99;95.95;52264.66;4980641;28;20019;-78
2023/04/08 02:55:50;;;;;;;;;;;;;;;-144.99;96.31;52276.88;4983407;28;20277;-80
2023/04/08 02:58:17;;;;;;;;;;;;;;;-144.99;95.49;52289.13;4979643;28;19988;-77
2023/04/08 03:00:43;;;;;;;;;;;;;;;-144.99;95.05;52285.03;4983627;28;20348;-79
2023/04/08 03:03:10;;;;;;;;;;;;;;;-144.99;94.99;52313.56;4983042;28;19984;-78
2023/04/08 03:05:36;;;;;;;;;;;;;;;-144.99;95.87;52276.88;4981827;28;20004;-79
2023/04/08 03:08:03;;;;;;;;;;;;;;;-144.99;95.83;52293.19;4985681;28;19929;-79
2023/04/08 03:10:31;;;;;;;;;;;;;;;-144.99;97.46;52333.94;4988934;28;20345;-77
2023/04/08 03:12:57;;;;;;;;;;;;;;;-144.99;96.03;52301.34;4985814;28;19929;-80
2023/04/08 03:15:24;;;;;;;;;;;;;;;-144.99;95.75;52311.53;4985647;28;20389;-77
2023/04/08 03:17:51;;;;;;;;;;;;;;;-144.99;95.39;52264.66;4983717;28;19960;-78
2023/04/08 03:20:17;;;;;;;;;;;;;;;-144.99;95.26;52305.41;4983827;28;20352;-74
2023/04/08 03:22:44;;;;;;;;;;;;;;;-144.99;95.01;52272.81;4982513;28;19934;-78
2023/04/08 03:25:11;;;;;;;;;;;;;;;-144.99;94.89;52309.50;4983140;28;20455;-77
2023/04/08 03:27:39;;;;;;;;;;;;;;;-144.99;94.79;52301.34;4979621;28;20504;-77
2023/04/08 03:30:06;;;;;;;;;;;;;;;-144.99;95.09;52280.97;4982158;28;20399;-78
2023/04/08 03:32:32;;;;;;;;;;;;;;;-144.99;95.07;52285.03;4984644;28;19973;-77
2023/04/08 03:34:59;;;;;;;;;;;;;;;-144.99;96.14;52287.06;4986531;28;19930;-78
2023/04/08 03:37:25;;;;;;;;;;;;;;;-144.99;95.63;52311.53;4990847;28;20058;-79
2023/04/08 03:39:52;;;;;;;;;;;;;;;-144.99;95.46;52299.31;4989556;28;19981;-80
2023/04/08 03:42:18;;;;;;;;;;;;;;;-144.99;95.11;52297.25;4988600;28;19926;-79
2023/04/08 03:44:46;;;;;;;;;;;;;;;-144.99;94.92;52325.81;4986999;28;20266;-78
2023/04/08 03:47:13;;;;;;;;;;;;;;;-144.99;94.91;52309.50;4983988;28;20024;-77
2023/04/08 03:49:39;;;;;;;;;;;;;;;-144.99;95.64;52313.56;4986161;28;19957;-77
2023/04/08 03:52:06;;;;;;;;;;;;;;;-144.99;96.10;52293.19;4987836;28;19937;-80
2023/04/08 03:54:32;;;;;;;;;;;;;;;-144.99;96.14;52293.19;4987784;28;20372;-78
2023/04/08 03:56:59;;;;;;;;;;;;;;;-144.99;96.10;52329.88;4984565;28;19933;-78
2023/04/08 03:59:25;;;;;;;;;;;;;;;-144.99;97.44;52327.84;4992635;28;19975;-80
2023/04/08 04:01:53;;;;;;;;;;;;;;;-144.99;96.57;52289.13;4990777;28;19926;-78
2023/04/08 04:04:20;;;;;;;;;;;;;;;-144.99;96.41;52293.19;4993249;28;19969;-80
2023/04/08 04:06:46;;;;;;;;;;;;;;;-144.99;96.17;52319.69;4993878;28;19926;-79
2023/04/08 04:09:14;;;;;;;;;;;;;;;-144.99;95.96;52309.50;4987913;28;19979;-77
2023/04/08 04:11:40;;;;;;;;;;;;;;;-144.99;95.96;52297.25;4987324;28;19934;-78
2023/04/08 04:14:07;;;;;;;;;;;;;;;-144.99;98.26;52278.91;4982286;28;20024;-78
2023/04/08 04:16:33;;;;;;;;;;;;;;;-144.99;96.98;52283.00;5002804;28;19914;-80
2023/04/08 04:19:01;;;;;;;;;;;;;;;-144.99;97.01;52301.34;5014160;28;19937;-78
2023/04/08 04:21:27;;;;;;;;;;;;;;;-144.99;97.13;52299.31;4994891;28;19973;-79
2023/04/08 04:23:54;;;;;;;;;;;;;;;-144.99;97.08;52301.34;4992858;28;20057;-80
2023/04/08 04:26:21;;;;;;;;;;;;;;;-144.99;96.78;52309.50;4992173;28;19925;-79
2023/04/08 04:28:47;;;;;;;;;;;;;;;-144.99;96.59;52338.03;4992132;28;19953;-78
2023/04/08 04:31:18;;;;;;;;;;;;;;;-144.99;96.82;52309.50;4994486;28;19984;-78
2023/04/08 04:33:46;;;;;;;;;;;;;;;-144.99;96.35;52321.72;4993588;28;19926;-78
2023/04/08 04:36:14;;;;;;;;;;;;;;;-144.99;97.19;52340.06;4994402;28;20028;-79
2023/04/08 04:38:41;;;;;;;;;;;;;;;-144.99;97.45;52264.66;4992731;28;19926;-78
2023/04/08 04:41:08;;;;;;;;;;;;;;;-144.99;97.36;52338.03;4994079;28;19929;-78
2023/04/08 04:43:34;;;;;;;;;;;;;;;-144.99;97.83;52301.34;4983477;28;19969;-78
2023/04/08 04:46:02;;;;;;;;;;;;;;;-144.99;97.78;52309.50;4987581;28;20031;-81
2023/04/08 04:48:29;;;;;;;;;;;;;;;-144.99;97.25;52256.50;4986143;28;19933;-79
2023/04/08 04:50:55;;;;;;;;;;;;;;;-144.99;97.50;52311.53;4984158;28;20464;-79
2023/04/08 04:53:23;;;;;;;;;;;;;;;-144.99;97.69;52285.03;4985832;28;19934;-78
2023/04/08 04:55:50;;;;;;;;;;;;;;;-144.99;97.51;52276.88;4984071;28;19992;-76
2023/04/08 04:58:17;;;;;;;;;;;;;;;-144.99;98.15;52301.34;4983607;28;20597;-76
2023/04/08 05:00:43;;;;;;;;;;;;;;;-144.99;98.05;52301.34;4981318;28;20013;-76
2023/04/08 05:03:09;;;;;;;;;;;;;;;-144.99;98.06;52305.41;4983297;28;19925;-75
2023/04/08 05:05:36;;;;;;;;;;;;;;;-144.99;98.04;52319.69;4982901;28;20466;-75
2023/04/08 05:08:02;;;;;;;;;;;;;;;-144.99;98.73;52293.19;4982132;28;19985;-75
2023/04/08 05:10:30;;;;;;;;;;;;;;;-144.99;98.63;52297.25;4982789;28;20437;-77
2023/04/08 05:12:57;;;;;;;;;;;;;;;-144.99;98.71;52305.41;4983851;28;20274;-75
2023/04/08 05:15:23;;;;;;;;;;;;;;;-144.99;99.29;52346.19;4983756;28;19962;-78
2023/04/08 05:17:50;;;;;;;;;;;;;;;-144.99;99.34;52289.13;4983587;28;19968;-76
2023/04/08 05:20:16;;;;;;;;;;;;;;;-144.99;99.32;52305.41;4984110;28;20042;-77
2023/04/08 05:22:44;;;;;;;;;;;;;;;-144.99;98.87;52325.81;4984251;28;20033;-78
2023/04/08 05:25:11;;;;;;;;;;;;;;;-144.99;98.67;52289.13;4983623;28;19926;-77
2023/04/08 05:27:39;;;;;;;;;;;;;;;-144.99;98.65;52264.66;4985845;28;20025;-78
2023/04/08 05:30:07;;;;;;;;;;;;;;;-144.99;98.58;52293.19;4983907;28;20565;-77
2023/04/08 05:32:34;;;;;;;;;;;;;;;-144.99;99.15;52317.66;4984705;28;19930;-77
2023/04/08 05:35:02;;;;;;;;;;;;;;;-144.99;99.39;52305.41;4985039;28;20304;-76
2023/04/08 05:37:28;;;;;;;;;;;;;;;-144.99;99.56;52323.75;4980624;28;20424;-77
2023/04/08 05:39:55;;;;;;;;;;;;;;;-144.99;99.90;52301.34;4985874;28;20012;-77
2023/04/08 05:42:21;;;;;;;;;;;;;;;-144.99;99.57;52268.72;4981224;28;19930;-78
2023/04/08 05:44:49;;;;;;;;;;;;;;;-144.99;99.18;52276.88;4980213;28;20400;-76
2023/04/08 05:47:15;;;;;;;;;;;;;;;-144.99;99.83;52305.41;4983247;28;20027;-78
2023/04/08 05:49:42;;;;;;;;;;;;;;;-144.99;99.79;52295.22;4981612;28;19969;-77
2023/04/08 05:52:08;;;;;;;;;;;;;;;-144.99;99.85;52301.34;4984542;28;19957;-77
2023/04/08 05:54:35;;;;;;;;;;;;;;;-144.99;99.40;52301.34;4983627;28;19934;-77
2023/04/08 05:57:01;;;;;;;;;;;;;;;-144.99;100.00;52299.31;4983785;28;20063;-77
2023/04/08 05:59:28;;;;;;;;;;;;;;;-144.99;100.00;52321.72;4981421;28;19929;-79
2023/04/08 06:01:56;;;;;;;;;;;;;;;-144.99;100.00;52276.88;4983837;28;19976;-78
2023/04/08 06:04:22;;;;;;;;;;;;;;;-144.99;100.00;52309.50;4983440;28;19973;-78
2023/04/08 06:06:49;;;;;;;;;;;;;;;-144.99;100.00;52293.19;4985249;28;19997;-79
2023/04/08 06:09:15;;;;;;;;;;;;;;;-144.99;100.00;52311.53;4985137;28;19926;-77
2023/04/08 06:11:42;;;;;;;;;;;;;;;-144.99;100.00;52329.88;4986441;28;20315;-76
2023/04/08 06:14:08;;;;;;;;;;;;;;;-144.99;100.00;52321.72;4984808;28;20667;-77
2023/04/08 06:16:35;;;;;;;;;;;;;;;-144.99;99.66;52303.38;4988116;28;19930;-77
2023/04/08 06:19:03;;;;;;;;;;;;;;;-144.99;99.99;52272.81;4990365;28;19929;-76
2023/04/08 06:21:29;;;;;;;;;;;;;;;-144.99;99.81;52280.97;4991371;28;19926;-77
2023/04/08 06:23:56;;;;;;;;;;;;;;;-144.99;100.00;52293.19;4990454;28;19930;-78
2023/04/08 06:26:22;;;;;;;;;;;;;;;-144.99;100.00;52301.34;5015473;22;20007;-65
2023/04/08 06:28:49;;;;;;;;;;;;;;;-144.99;100.00;52289.13;5020125;28;19925;-66
2023/04/08 06:31:15;;;;;;;;;;;;;;;-144.99;100.00;52297.25;5029998;28;19971;-66
2023/04/08 06:33:42;;;;;;;;;;;;;;;-144.99;100.00;52315.59;5025089;28;19979;-66
2023/04/08 06:36:12;;;;;;;;;;;;;;;-144.99;100.00;52256.50;5029601;28;19925;-67
2023/04/08 06:38:38;;;;;;;;;;;;;;;-144.99;100.00;52327.84;5031589;28;19936;-67
2023/04/08 06:41:05;;;;;;;;;;;;;;;-144.99;100.00;52295.22;5026421;28;19948;-68
2023/04/08 06:43:32;;;;;;;;;;;;;;;-144.99;100.00;52313.56;5016486;28;19992;-67
2023/04/08 06:45:59;;;;;;;;;;;;;;;-144.99;100.00;52333.94;5021355;28;20031;-68
2023/04/08 06:48:27;;;;;;;;;;;;;;;-144.99;100.00;52287.06;5022215;28;20238;-66
2023/04/08 06:50:54;;;;;;;;;;;;;;;-144.99;100.00;52305.41;5021629;28;20012;-68
2023/04/08 06:53:22;;;;;;;;;;;;;;;-144.99;100.00;52366.56;5022747;28;20298;-68
2023/04/08 06:55:48;;;;;;;;;;;;;;;-144.99;100.00;52319.69;5019806;28;20410;-68
2023/04/08 06:58:15;;;;;;;;;;;;;;;-144.99;100.00;52309.50;5016598;28;20017;-68
2023/04/08 07:00:42;;;;;;;;;;;;;;;-144.99;100.00;52321.72;5021966;28;20022;-68
2023/04/08 07:03:10;;;;;;;;;;;;;;;-144.99;100.00;52317.66;5021131;28;20524;-67
2023/04/08 07:05:37;;;;;;;;;;;;;;;-144.99;100.00;52297.25;5021561;28;19933;-69
2023/04/08 07:08:03;;;;;;;;;;;;;;;-144.99;100.00;52285.03;5021989;28;19987;-69
2023/04/08 07:10:31;;;;;;;;;;;;;;;-144.99;100.00;52283.00;5024778;28;19925;-69
2023/04/08 07:12:58;;;;;;;;;;;;;;;-144.99;100.00;52321.72;5025781;28;19960;-60
2023/04/08 07:15:24;;;;;;;;;;;;;;;-144.99;100.00;52325.81;5026200;28;19968;-61
2023/04/08 07:17:51;;;;;;;;;;;;;;;-144.99;99.36;52293.19;5025223;28;19972;-59
2023/04/08 07:20:18;;;;;;;;;;;;;;;-144.99;98.51;52323.75;5024813;28;19945;-62
2023/04/08 07:22:44;;;;;;;;;;;;;;;-144.99;99.19;52285.03;5023124;28;20019;-63
2023/04/08 07:25:11;;;;;;;;;;;;;;;-144.99;98.35;52293.19;5021237;28;19934;-65
2023/04/08 07:27:39;;;;;;;;;;;;;;;-144.99;100.00;52315.59;5023260;28;19957;-64
2023/04/08 07:30:06;;;;;;;;;;;;;;;-144.99;100.00;52344.16;5025255;28;20175;-65
2023/04/08 07:32:33;;;;;;;;;;;;;;;-144.99;100.00;52323.75;5025514;28;19925;-64
2023/04/08 07:34:59;;;;;;;;;;;;;;;-144.99;99.57;52285.03;5025954;28;19964;-64
2023/04/08 07:37:26;;;;;;;;;;;;;;;-144.99;99.84;52280.97;5026750;28;20370;-64
2023/04/08 07:39:52;;;;;;;;;;;;;;;-144.99;100.00;52248.34;5024418;28;19936;-65
2023/04/08 07:42:19;;;;;;;;;;;;;;;-144.99;99.29;52285.03;5025181;28;20413;-65
2023/04/08 07:44:47;;;;;;;;;;;;;;;-144.99;99.88;52309.50;5024817;28;19979;-64
2023/04/08 07:47:13;;;;;;;;;;;;;;;-144.99;99.93;52313.56;5026237;28;19979;-64
2023/04/08 07:49:40;;;;;;;;;;;;;;;-144.99;98.33;52264.66;5022995;28;19933;-65
2023/04/08 07:52:07;;;;;;;;;;;;;;;-144.99;98.82;52260.56;5025939;28;20020;-65
2023/04/08 07:54:34;;;;;;;;;;;;;;;-144.99;98.12;52272.81;5021966;28;19933;-65
2023/04/08 07:57:01;;;;;;;;;;;;;;;-144.99;97.41;52268.72;5020152;28;19937;-65
2023/04/08 07:59:28;;;;;;;;;;;;;;;-144.99;96.36;52289.13;5024968;28;20277;-63
2023/04/08 08:01:55;;;;;;;;;;;;;;;-144.99;95.70;52291.16;5023372;28;20368;-63
2023/04/08 08:04:24;;;;;;;;;;;;;;;-144.99;95.49;52313.56;5019633;28;19967;-63
2023/04/08 08:06:51;;;;;;;;;;;;;;;-144.99;95.41;52283.00;5022463;28;19929;-63
2023/04/08 08:09:17;;;;;;;;;;;;;;;-144.99;96.19;52305.41;5023638;28;19937;-63
2023/04/08 08:11:44;;;;;;;;;;;;;;;-144.99;96.64;52309.50;5026696;28;20051;-66
2023/04/08 08:14:12;;;;;;;;;;;;;;;-144.99;95.84;52289.13;5023090;28;19925;-66
2023/04/08 08:16:39;;;;;;;;;;;;;;;-144.99;95.49;52305.41;5020129;28;19933;-65
2023/04/08 08:19:07;;;;;;;;;;;;;;;-144.99;96.42;52293.19;5022953;28;20071;-64
2023/04/08 08:21:36;;;;;;;;;;;;;;;-144.99;96.45;52280.97;5018319;28;19976;-65
2023/04/08 08:24:03;;;;;;;;;;;;;;;-144.99;97.03;52240.19;5027838;28;20018;-63
2023/04/08 08:26:29;;;;;;;;;;;;;;;-144.99;96.55;52301.34;5025044;28;20279;-63
2023/04/08 08:28:56;;;;;;;;;;;;;;;-144.99;97.16;52289.13;5025199;28;20428;-63
2023/04/08 08:31:22;;;;;;;;;;;;;;;-144.99;97.66;52309.50;5025374;28;19979;-63
2023/04/08 08:33:49;;;;;;;;;;;;;;;-144.99;96.47;52319.69;5024517;28;19928;-63
2023/04/08 08:36:17;;;;;;;;;;;;;;;-144.99;96.39;52327.84;5024001;28;19925;-64
2023/04/08 08:38:43;;;;;;;;;;;;;;;-144.99;96.34;52276.88;5025892;28;19925;-64
2023/04/08 08:41:10;;;;;;;;;;;;;;;-144.99;96.37;52309.50;5025754;28;19994;-64
2023/04/08 08:43:37;;;;;;;;;;;;;;;-144.99;95.89;52293.19;5015810;28;20414;-64
2023/04/08 08:46:03;;;;;;;;;;;;;;;-144.99;95.30;52301.34;5029325;28;20028;-64
2023/04/08 08:48:31;;;;;;;;;;;;;;;-144.99;95.11;52280.97;5016196;28;19925;-62
2023/04/08 08:50:57;;;;;;;;;;;;;;;-144.99;95.69;52289.13;5016873;28;19929;-62
2023/04/08 08:53:29;;;;;;;;;;;;;;;-144.99;95.32;52305.41;5025791;28;19956;-63
2023/04/08 08:55:56;;;;;;;;;;;;;;;-144.99;95.13;52268.72;5022823;28;19932;-63
2023/04/08 08:58:27;;;;;;;;;;;;;;;-144.99;94.51;52276.88;5017958;28;19925;-63
2023/04/08 09:00:53;;;;;;;;;;;;;;;-144.99;94.07;52297.25;5023615;28;19925;-64
2023/04/08 09:03:21;;;;;;;;;;;;;;;-144.99;93.85;52305.41;5025459;28;19961;-65
2023/04/08 09:05:48;;;;;;;;;;;;;;;-144.99;93.99;52280.97;5018262;28;20378;-64
2023/04/08 09:08:29;;;;;;;;;;;;;;;-144.99;93.80;52317.66;5028845;28;19941;-65
2023/04/08 09:10:56;;;;;;;;;;;;;;;-144.99;93.45;52285.03;5023767;28;19968;-65
2023/04/08 09:13:23;;;;;;;;;;;;;;;-144.99;93.71;52289.13;5022025;28;20344;-66
2023/04/08 09:16:11;;;;;;;;;;;;;;;-144.99;93.89;52285.03;5022018;28;19936;-68
2023/04/08 09:18:38;;;;;;;;;;;;;;;-144.99;93.15;52285.03;5016376;28;19969;-66
2023/04/08 09:21:05;;;;;;;;;;;;;;;-144.99;92.94;52297.25;5019251;28;20808;-64
2023/04/08 09:23:39;;;;;;;;;;;;;;;-144.99;93.42;52333.94;5022626;28;19929;-64
2023/04/08 09:26:10;;;;;;;;;;;;;;;-144.99;92.94;52297.25;5021216;28;19929;-64
2023/04/08 09:28:36;;;;;;;;;;;;;;;-144.99;92.85;52283.00;5023337;28;20044;-65
2023/04/08 09:31:17;;;;;;;;;;;;;;;-144.99;92.26;52256.50;5029688;28;20020;-65
2023/04/08 09:33:44;;;;;;;;;;;;;;;-144.99;92.05;52264.66;5015556;28;20020;-66
2023/04/08 09:36:11;;;;;;;;;;;;;;;-144.99;92.21;52252.44;5024131;28;19995;-65
2023/04/08 09:38:39;;;;;;;;;;;;;;;-144.99;91.40;52242.22;5028529;28;19940;-66
2023/04/08 09:41:07;;;;;;;;;;;;;;;-144.99;90.50;52250.38;5027202;28;19987;-66
2023/04/08 09:43:36;;;;;;;;;;;;;;;-144.99;89.84;52244.28;5017717;28;19960;-65
2023/04/08 09:46:06;;;;;;;;;;;;;;;-144.99;89.58;52264.66;5024150;28;19936;-65
2023/04/08 09:48:39;;;;;;;;;;;;;;;-144.99;89.46;52301.34;5027959;28;20019;-64
2023/04/08 09:51:06;;;;;;;;;;;;;;;-144.99;89.04;52258.53;5025120;28;20352;-65
2023/04/08 09:53:35;;;;;;;;;;;;;;;-144.99;89.49;52248.34;5025208;28;19937;-64
2023/04/08 09:56:07;;;;;;;;;;;;;;;-144.99;88.86;52276.88;5027883;28;19983;-64
2023/04/08 09:58:34;;;;;;;;;;;;;;;-144.99;88.25;52260.56;5027516;28;20086;-65
2023/04/08 10:01:00;;;;;;;;;;;;;;;-144.99;88.41;52252.44;5027484;28;20051;-66
2023/04/08 10:03:28;;;;;;;;;;;;;;;-144.99;88.08;52264.66;5023272;28;20005;-65
2023/04/08 10:05:56;;;;;;;;;;;;;;;-144.99;88.21;52285.03;5024517;28;20058;-64
2023/04/08 10:08:23;;;;;;;;;;;;;;;-144.99;88.35;52280.97;5019732;28;19991;-63
2023/04/08 10:10:50;;;;;;;;;;;;;;;-144.99;87.99;52268.72;5027993;28;19925;-65
2023/04/08 10:13:18;;;;;;;;;;;;;;;-144.99;87.42;52260.56;5014274;28;19968;-65
2023/04/08 10:15:46;;;;;;;;;;;;;;;-144.99;87.04;52250.38;5027531;28;20400;-65
2023/04/08 10:18:37;;;;;;;;;;;;;;;-144.99;87.22;52270.78;5018923;28;19948;-65
2023/04/08 10:21:03;;;;;;;;;;;;;;;-144.99;86.93;52268.72;5007763;28;19936;-65
2023/04/08 10:23:48;;;;;;;;;;;;;;;-144.99;86.83;52285.03;5019893;28;19929;-64
2023/04/08 10:26:30;;;;;;;;;;;;;;;-144.99;87.39;52276.88;5020683;28;20358;-65
2023/04/08 10:29:20;;;;;;;;;;;;;;;-144.99;87.62;52258.53;5022791;28;20305;-66
2023/04/08 10:31:47;;;;;;;;;;;;;;;-144.99;87.00;52278.91;5023001;28;19925;-64
2023/04/08 10:34:17;;;;;;;;;;;;;;;-144.99;87.23;52295.22;5026805;28;20345;-67
2023/04/08 10:36:44;;;;;;;;;;;;;;;-144.99;87.10;52264.66;5025390;28;19960;-66
2023/04/08 10:39:11;;;;;;;;;;;;;;;-144.99;86.33;52244.28;5024499;28;20012;-66
2023/04/08 10:41:41;;;;;;;;;;;;;;;-144.99;85.93;52260.56;5023220;28;19939;-67
2023/04/08 10:44:16;;;;;;;;;;;;;;;-144.99;86.51;52272.81;5021466;28;20325;-64
2023/04/08 10:46:43;;;;;;;;;;;;;;;-144.99;85.93;52260.56;5024838;28;20011;-65
2023/04/08 10:49:09;;;;;;;;;;;;;;;-144.99;85.79;52256.50;5026999;28;20003;-65
2023/04/08 10:51:36;;;;;;;;;;;;;;;-144.99;86.09;52291.16;5031556;28;19976;-65
2023/04/08 10:54:06;;;;;;;;;;;;;;;-144.99;86.81;52305.41;5031640;28;19929;-67
2023/04/08 10:56:33;;;;;;;;;;;;;;;-144.99;86.38;52240.19;5032148;28;19933;-66
2023/04/08 10:58:59;;;;;;;;;;;;;;;-144.99;85.95;52285.03;5029950;28;20012;-67
2023/04/08 11:01:28;;;;;;;;;;;;;;;-144.99;85.77;52285.03;5031833;28;20378;-66
2023/04/08 11:03:55;;;;;;;;;;;;;;;-144.99;85.77;52246.31;5029164;28;20305;-66
2023/04/08 11:06:22;;;;;;;;;;;;;;;-144.99;85.56;52293.19;5027325;28;19925;-65
2023/04/08 11:08:48;;;;;;;;;;;;;;;-144.99;85.58;52240.19;5029217;28;19925;-65
2023/04/08 11:11:15;;;;;;;;;;;;;;;-144.99;86.81;52256.50;5031181;28;19954;-66
2023/04/08 11:13:42;;;;;;;;;;;;;;;-144.99;86.25;52264.66;5025429;28;20339;-66
2023/04/08 11:16:09;;;;;;;;;;;;;;;-144.99;87.58;52248.34;5029091;28;19933;-66
2023/04/08 11:18:37;;;;;;;;;;;;;;;-144.99;86.17;52293.19;5020602;28;19929;-66
2023/04/08 11:21:08;;;;;;;;;;;;;;;-144.99;86.28;52280.97;5030256;28;19999;-66
2023/04/08 11:23:36;;;;;;;;;;;;;;;-144.99;86.41;52283.00;5026352;28;19960;-66
2023/04/08 11:26:03;;;;;;;;;;;;;;;-144.99;86.62;52272.81;5030092;28;20720;-65
2023/04/08 11:28:30;;;;;;;;;;;;;;;-144.99;86.35;52287.06;5024515;28;20007;-66
2023/04/08 11:30:57;;;;;;;;;;;;;;;-144.99;86.61;52278.91;5022751;28;20059;-64
2023/04/08 11:33:25;;;;;;;;;;;;;;;-144.99;86.61;52276.88;5026805;28;20119;-66
2023/04/08 11:35:53;;;;;;;;;;;;;;;-144.99;86.42;52289.13;5023923;28;19960;-66
2023/04/08 11:38:22;;;;;;;;;;;;;;;-144.99;86.12;52268.72;5015130;28;19941;-66
2023/04/08 11:40:52;;;;;;;;;;;;;;;-144.99;86.56;52307.47;5028300;28;19951;-65
2023/04/08 11:43:19;;;;;;;;;;;;;;;-144.99;86.82;52289.13;5024537;28;19973;-66
2023/04/08 11:45:45;;;;;;;;;;;;;;;-144.99;86.49;52309.50;5018557;28;20037;-65
2023/04/08 11:48:12;;;;;;;;;;;;;;;-144.99;87.11;52287.06;5024232;28;19945;-67
2023/04/08 11:50:39;;;;;;;;;;;;;;;-144.99;87.23;52260.56;5028435;28;19989;-65
2023/04/08 11:53:18;;;;;;;;;;;;;;;-144.99;87.07;52285.03;5034773;28;20411;-65
2023/04/08 11:55:45;;;;;;;;;;;;;;;-144.99;87.16;52289.13;5018510;28;20005;-65
2023/04/08 11:58:12;;;;;;;;;;;;;;;-144.99;87.21;52280.97;5020369;28;19950;-64
2023/04/08 12:00:38;;;;;;;;;;;;;;;-144.99;87.07;52285.03;5024507;28;19948;-64
2023/04/08 12:03:05;;;;;;;;;;;;;;;-144.99;86.77;52272.81;5030315;28;20047;-64
2023/04/08 12:05:32;;;;;;;;;;;;;;;-144.99;86.86;52276.88;5030184;28;20325;-64
2023/04/08 12:07:58;;;;;;;;;;;;;;;-144.99;87.25;52256.50;5023208;28;20371;-64
2023/04/08 12:10:26;;;;;;;;;;;;;;;-144.99;87.83;52280.97;5030193;28;19991;-64
2023/04/08 12:12:53;;;;;;;;;;;;;;;-144.99;87.92;52295.22;5029818;28;19991;-64
2023/04/08 12:15:19;;;;;;;;;;;;;;;-144.99;87.86;52285.03;5020457;28;20029;-64
2023/04/08 12:17:46;;;;;;;;;;;;;;;-144.99;87.73;52248.34;5024933;28;20134;-64
2023/04/08 12:20:13;;;;;;;;;;;;;;;-144.99;87.58;52346.19;5029761;28;19945;-65
2023/04/08 12:22:39;;;;;;;;;;;;;;;-144.99;87.35;52264.66;5030297;28;19945;-65
2023/04/08 12:25:06;;;;;;;;;;;;;;;-144.99;87.51;52295.22;5028592;28;20265;-63
2023/04/08 12:27:34;;;;;;;;;;;;;;;-144.99;89.20;52305.41;5018065;28;19950;-66